createdAt,value
2023-03-21T00:00:43.885Z,60.49
2023-03-21T00:03:10.060Z,60.48
2023-03-21T00:05:36.814Z,60.49
2023-03-21T00:08:03.480Z,60.55
2023-03-21T00:10:39.558Z,60.50
2023-03-21T00:13:09.570Z,60.49
2023-03-21T00:15:42.554Z,60.48
2023-03-21T00:18:14.737Z,60.49
2023-03-21T00:20:40.876Z,60.50
2023-03-21T00:23:06.979Z,60.42
2023-03-21T00:25:33.337Z,60.55
2023-03-21T00:28:07.925Z,60.49
2023-03-21T00:30:34.907Z,60.50
2023-03-21T00:33:05.895Z,60.69
2023-03-21T00:35:58.354Z,60.58
2023-03-21T00:38:24.515Z,60.49
2023-03-21T00:40:50.750Z,60.43
2023-03-21T00:43:16.843Z,60.59
2023-03-21T00:45:42.949Z,60.63
2023-03-21T00:48:09.122Z,60.51
2023-03-21T00:50:35.286Z,60.51
2023-03-21T00:53:01.392Z,60.55
2023-03-21T00:55:27.609Z,60.45
2023-03-21T00:58:01.590Z,60.51
2023-03-21T01:00:28.280Z,60.53
2023-03-21T01:03:00.226Z,60.56
2023-03-21T01:05:27.758Z,60.55
2023-03-21T01:07:53.981Z,60.65
2023-03-21T01:10:20.144Z,60.56
2023-03-21T01:12:46.360Z,60.45
2023-03-21T01:15:12.469Z,60.54
2023-03-21T01:17:38.637Z,60.69
2023-03-21T01:20:04.889Z,60.52
2023-03-21T01:22:31.141Z,61.00
2023-03-21T01:25:08.721Z,60.50
2023-03-21T01:27:38.478Z,60.53
2023-03-21T01:30:11.303Z,60.56
2023-03-21T01:32:43.781Z,60.56
2023-03-21T01:35:09.980Z,60.61
2023-03-21T01:37:36.195Z,60.61
2023-03-21T01:40:02.388Z,60.70
2023-03-21T01:42:28.598Z,60.56
2023-03-21T01:44:54.826Z,60.69
2023-03-21T01:47:21.044Z,60.62
2023-03-21T01:49:47.248Z,60.74
2023-03-21T01:52:23.616Z,60.51
2023-03-21T01:54:56.188Z,60.51
2023-03-21T01:57:22.605Z,60.54
2023-03-21T01:59:50.268Z,60.59
2023-03-21T02:02:18.800Z,60.70
2023-03-21T02:04:44.906Z,60.58
2023-03-21T02:07:11.086Z,60.58
2023-03-21T02:09:37.307Z,60.76
2023-03-21T02:12:03.504Z,60.65
2023-03-21T02:14:29.783Z,60.57
2023-03-21T02:16:56.031Z,60.64
2023-03-21T02:19:29.607Z,60.59
2023-03-21T02:21:59.083Z,60.58
2023-03-21T02:24:25.404Z,60.61
2023-03-21T02:27:01.388Z,60.90
2023-03-21T02:29:29.415Z,60.48
2023-03-21T02:31:58.780Z,60.56
2023-03-21T02:34:27.054Z,60.59
2023-03-21T02:36:53.297Z,60.72
2023-03-21T02:39:19.624Z,60.62
2023-03-21T02:41:45.775Z,60.64
2023-03-21T02:44:12.068Z,60.43
2023-03-21T02:46:47.049Z,60.61
2023-03-21T02:49:15.796Z,60.57
2023-03-21T02:51:42.051Z,60.66
2023-03-21T02:54:28.208Z,60.59
2023-03-21T02:56:54.287Z,60.71
2023-03-21T02:59:20.424Z,60.67
2023-03-21T03:01:46.641Z,60.50
2023-03-21T03:04:12.905Z,60.80
2023-03-21T03:06:39.056Z,60.77
2023-03-21T03:09:05.163Z,60.73
2023-03-21T03:11:31.447Z,60.60
2023-03-21T03:13:58.123Z,60.55
2023-03-21T03:16:24.411Z,60.63
2023-03-21T03:18:50.601Z,60.67
2023-03-21T03:21:16.800Z,60.73
2023-03-21T03:23:43.092Z,60.61
2023-03-21T03:26:09.264Z,60.92
2023-03-21T03:28:35.435Z,60.60
2023-03-21T03:31:09.136Z,60.64
2023-03-21T03:33:36.255Z,60.67
2023-03-21T03:36:06.418Z,60.80
2023-03-21T03:38:33.161Z,60.60
2023-03-21T03:40:59.309Z,60.49
2023-03-21T03:43:25.516Z,60.60
2023-03-21T03:45:51.687Z,60.53
2023-03-21T03:48:18.629Z,60.66
2023-03-21T03:50:44.907Z,60.73
2023-03-21T03:53:18.043Z,60.61
2023-03-21T03:55:44.838Z,60.61
2023-03-21T03:58:22.747Z,60.51
2023-03-21T04:00:49.860Z,60.52
2023-03-21T04:03:16.060Z,60.65
2023-03-21T04:05:42.266Z,60.76
2023-03-21T04:08:08.432Z,60.82
2023-03-21T04:10:34.769Z,60.71
2023-03-21T04:13:00.934Z,60.60
2023-03-21T04:15:27.228Z,60.76
2023-03-21T04:17:53.418Z,60.72
2023-03-21T04:20:30.284Z,60.76
2023-03-21T04:23:02.629Z,60.67
2023-03-21T04:25:33.833Z,60.73
2023-03-21T04:28:00.247Z,60.74
2023-03-21T04:30:26.632Z,61.00
2023-03-21T04:32:52.811Z,60.65
2023-03-21T04:35:18.984Z,60.62
2023-03-21T04:37:45.218Z,60.67
2023-03-21T04:40:11.470Z,60.79
2023-03-21T04:42:37.793Z,60.72
2023-03-21T04:45:03.940Z,60.88
2023-03-21T04:47:30.047Z,60.79
2023-03-21T04:49:56.264Z,60.73
2023-03-21T04:52:24.889Z,60.81
2023-03-21T04:54:51.552Z,60.89
2023-03-21T04:57:17.777Z,60.66
2023-03-21T04:59:44.570Z,60.84
2023-03-21T05:02:10.781Z,60.87
2023-03-21T05:04:36.963Z,60.81
2023-03-21T05:07:03.191Z,60.87
2023-03-21T05:09:29.277Z,60.79
2023-03-21T05:11:55.416Z,61.04
2023-03-21T05:14:21.607Z,60.73
2023-03-21T05:16:47.815Z,60.88
2023-03-21T05:19:14.106Z,60.76
2023-03-21T05:21:40.761Z,60.84
2023-03-21T05:24:06.858Z,60.81
2023-03-21T05:26:32.980Z,60.80
2023-03-21T05:28:59.199Z,60.96
2023-03-21T05:31:25.465Z,60.68
2023-03-21T05:33:51.622Z,60.97
2023-03-21T05:36:17.805Z,60.98
2023-03-21T05:38:43.987Z,60.90
2023-03-21T05:41:10.119Z,60.87
2023-03-21T05:43:36.258Z,60.96
2023-03-21T05:46:02.399Z,60.87
2023-03-21T05:48:28.553Z,60.89
2023-03-21T05:50:54.747Z,60.84
2023-03-21T05:53:23.166Z,60.85
2023-03-21T05:55:49.477Z,61.15
2023-03-21T05:58:15.638Z,61.08
2023-03-21T06:00:41.781Z,60.94
2023-03-21T06:03:07.927Z,60.92
2023-03-21T06:05:34.129Z,61.05
2023-03-21T06:08:00.230Z,60.83
2023-03-21T06:10:26.335Z,60.77
2023-03-21T06:12:52.498Z,61.16
2023-03-21T06:15:18.609Z,60.86
2023-03-21T06:17:44.761Z,60.82
2023-03-21T06:20:10.904Z,60.90
2023-03-21T06:22:37.010Z,60.96
2023-03-21T06:25:03.150Z,60.77
2023-03-21T06:27:29.326Z,61.08
2023-03-21T06:29:55.454Z,61.07
2023-03-21T06:32:21.559Z,60.88
2023-03-21T06:34:47.707Z,60.92
2023-03-21T06:37:13.828Z,60.88
2023-03-21T06:39:39.949Z,60.83
2023-03-21T06:42:06.053Z,60.90
2023-03-21T06:44:32.181Z,61.03
2023-03-21T06:46:58.321Z,60.89
2023-03-21T06:49:24.488Z,61.10
2023-03-21T06:51:50.592Z,61.06
2023-03-21T06:54:16.808Z,60.88
2023-03-21T06:56:43.023Z,60.91
2023-03-21T06:59:09.197Z,60.92
2023-03-21T07:01:35.352Z,61.11
2023-03-21T07:04:01.544Z,60.89
2023-03-21T07:06:27.698Z,60.79
2023-03-21T07:08:53.875Z,61.05
2023-03-21T07:11:20.551Z,60.90
2023-03-21T07:13:46.733Z,60.96
2023-03-21T07:16:13.029Z,60.94
2023-03-21T07:18:39.252Z,61.06
2023-03-21T07:21:05.390Z,60.97
2023-03-21T07:23:31.574Z,60.94
2023-03-21T07:25:58.052Z,60.94
2023-03-21T07:28:24.236Z,61.13
2023-03-21T07:30:51.542Z,60.92
2023-03-21T07:33:17.706Z,61.00
2023-03-21T07:35:43.941Z,60.96
2023-03-21T07:38:10.252Z,60.90
2023-03-21T07:40:36.850Z,61.14
2023-03-21T07:45:34.326Z,60.95
2023-03-21T07:48:00.619Z,61.00
2023-03-21T07:50:26.797Z,61.03
2023-03-21T07:52:52.965Z,60.97
2023-03-21T07:55:19.105Z,61.08
2023-03-21T07:57:45.278Z,60.91
2023-03-21T08:00:11.388Z,61.06
2023-03-21T08:02:37.738Z,60.97
2023-03-21T08:05:03.980Z,61.10
2023-03-21T08:07:30.124Z,60.99
2023-03-21T08:09:56.247Z,60.96
2023-03-21T08:12:22.385Z,60.99
2023-03-21T08:14:48.583Z,60.82
2023-03-21T08:17:14.758Z,61.09
2023-03-21T08:19:40.910Z,61.04
2023-03-21T08:22:07.048Z,60.93
2023-03-21T08:24:33.188Z,60.92
2023-03-21T08:26:59.278Z,61.00
2023-03-21T08:29:25.448Z,61.21
2023-03-21T08:31:51.779Z,61.14
2023-03-21T08:34:17.913Z,61.13
2023-03-21T08:36:44.019Z,61.14
2023-03-21T08:39:10.145Z,60.96
2023-03-21T08:41:36.238Z,61.00
2023-03-21T08:44:02.375Z,61.16
2023-03-21T08:46:28.688Z,60.96
2023-03-21T08:48:54.854Z,61.03
2023-03-21T08:51:20.947Z,61.11
2023-03-21T08:53:47.072Z,61.04
2023-03-21T08:56:13.164Z,60.99
2023-03-21T08:58:39.265Z,60.97
2023-03-21T09:01:05.443Z,60.92
2023-03-21T09:03:31.540Z,60.97
2023-03-21T09:05:57.729Z,61.28
2023-03-21T09:08:23.894Z,61.05
2023-03-21T09:10:50.041Z,60.99
2023-03-21T09:13:16.193Z,60.99
2023-03-21T09:15:42.855Z,61.13
2023-03-21T09:18:09.029Z,61.00
2023-03-21T09:20:35.213Z,60.94
2023-03-21T09:23:02.546Z,61.23
2023-03-21T09:25:28.672Z,61.12
2023-03-21T09:27:54.861Z,61.13
2023-03-21T09:30:21.079Z,61.00
2023-03-21T09:32:47.395Z,61.14
2023-03-21T09:35:13.652Z,61.18
2023-03-21T09:37:39.865Z,61.05
2023-03-21T09:40:06.187Z,61.19
2023-03-21T09:42:32.341Z,61.06
2023-03-21T09:44:58.543Z,61.02
2023-03-21T09:47:24.719Z,61.01
2023-03-21T09:49:51.149Z,61.07
2023-03-21T09:52:17.953Z,61.22
2023-03-21T09:54:44.068Z,60.97
2023-03-21T09:57:10.194Z,60.96
2023-03-21T09:59:36.378Z,61.00
2023-03-21T10:02:02.584Z,60.98
2023-03-21T10:04:28.914Z,61.07
2023-03-21T10:06:55.088Z,61.09
2023-03-21T10:09:21.227Z,61.05
2023-03-21T10:11:47.345Z,60.98
2023-03-21T10:14:13.530Z,61.03
2023-03-21T10:16:39.675Z,60.99
2023-03-21T10:19:05.810Z,60.98
2023-03-21T10:21:58.602Z,61.15
2023-03-21T10:24:18.263Z,61.17
2023-03-21T10:26:44.478Z,60.88
2023-03-21T10:29:10.765Z,61.07
2023-03-21T10:31:36.957Z,61.12
2023-03-21T10:34:03.133Z,60.98
2023-03-21T10:36:29.289Z,61.00
2023-03-21T10:38:55.423Z,61.16
2023-03-21T10:41:21.628Z,61.25
2023-03-21T10:43:47.779Z,60.95
2023-03-21T10:46:14.136Z,61.02
2023-03-21T10:48:40.498Z,61.05
2023-03-21T10:51:06.751Z,61.23
2023-03-21T10:53:32.871Z,60.94
2023-03-21T10:55:59.000Z,61.20
2023-03-21T10:58:25.204Z,60.98
2023-03-21T11:00:51.404Z,61.19
2023-03-21T11:03:17.617Z,61.33
2023-03-21T11:05:43.743Z,60.95
2023-03-21T11:08:10.024Z,61.04
2023-03-21T11:10:36.158Z,61.17
2023-03-21T11:13:02.274Z,60.98
2023-03-21T11:15:28.362Z,61.13
2023-03-21T11:17:54.575Z,60.92
2023-03-21T11:20:20.766Z,61.10
2023-03-21T11:22:46.999Z,61.10
2023-03-21T11:25:13.611Z,60.97
2023-03-21T11:27:39.713Z,61.20
2023-03-21T11:30:05.825Z,61.04
2023-03-21T11:32:32.057Z,61.05
2023-03-21T11:34:58.237Z,61.16
2023-03-21T11:37:24.374Z,61.26
2023-03-21T11:39:50.680Z,61.07
2023-03-21T11:42:16.858Z,61.13
2023-03-21T11:44:42.985Z,61.03
2023-03-21T11:47:09.183Z,61.04
2023-03-21T11:49:35.317Z,61.24
2023-03-21T11:52:01.431Z,61.02
2023-03-21T11:54:27.607Z,61.03
2023-03-21T11:56:53.703Z,60.98
2023-03-21T11:59:19.833Z,61.19
2023-03-21T12:01:45.971Z,61.01
2023-03-21T12:04:12.271Z,61.04
2023-03-21T12:06:38.544Z,61.04
2023-03-21T12:09:04.768Z,61.12
2023-03-21T12:11:30.892Z,61.29
2023-03-21T12:13:56.995Z,61.11
2023-03-21T12:16:23.320Z,61.09
2023-03-21T12:18:49.498Z,61.04
2023-03-21T12:21:15.646Z,61.09
2023-03-21T12:23:41.839Z,61.05
2023-03-21T12:26:07.964Z,61.19
2023-03-21T12:28:34.087Z,61.23
2023-03-21T12:31:00.284Z,61.05
2023-03-21T12:33:26.471Z,61.07
2023-03-21T12:35:52.619Z,61.06
2023-03-21T12:38:18.877Z,60.92
2023-03-21T12:40:45.012Z,61.13
2023-03-21T12:43:11.202Z,61.02
2023-03-21T12:45:46.701Z,61.12
2023-03-21T12:48:13.701Z,61.10
2023-03-21T12:50:39.842Z,61.21
2023-03-21T12:53:05.963Z,61.00
2023-03-21T12:55:32.054Z,61.07
2023-03-21T12:57:58.236Z,61.03
2023-03-21T13:00:24.404Z,61.13
2023-03-21T13:02:50.578Z,61.01
2023-03-21T13:05:16.783Z,61.03
2023-03-21T13:07:42.881Z,61.22
2023-03-21T13:10:09.035Z,61.13
2023-03-21T13:12:35.221Z,60.99
2023-03-21T13:15:02.661Z,61.18
2023-03-21T13:17:29.645Z,61.17
2023-03-21T13:19:55.758Z,61.07
2023-03-21T13:22:21.916Z,61.02
2023-03-21T13:24:48.069Z,61.02
2023-03-21T13:27:14.392Z,61.00
2023-03-21T13:29:40.502Z,61.02
2023-03-21T13:32:06.755Z,61.00
2023-03-21T13:34:32.902Z,61.22
2023-03-21T13:36:59.014Z,61.03
2023-03-21T13:39:25.145Z,60.98
2023-03-21T13:41:51.334Z,60.98
2023-03-21T13:44:17.466Z,60.97
2023-03-21T13:46:52.893Z,61.15
2023-03-21T13:49:20.296Z,61.01
2023-03-21T13:51:46.480Z,60.97
2023-03-21T13:54:12.602Z,61.17
2023-03-21T13:56:38.780Z,60.98
2023-03-21T13:59:04.940Z,60.97
2023-03-21T14:01:31.166Z,61.07
2023-03-21T14:03:57.346Z,61.16
2023-03-21T14:06:23.510Z,61.07
2023-03-21T14:08:49.770Z,61.01
2023-03-21T14:11:15.954Z,61.00
2023-03-21T14:13:50.961Z,61.03
2023-03-21T14:16:17.874Z,61.11
2023-03-21T14:18:59.259Z,61.06
2023-03-21T14:21:25.500Z,61.04
2023-03-21T14:23:51.623Z,61.16
2023-03-21T14:26:17.735Z,61.15
2023-03-21T14:28:44.352Z,60.96
2023-03-21T14:31:10.532Z,60.97
2023-03-21T14:33:36.680Z,61.00
2023-03-21T14:36:02.903Z,60.99
2023-03-21T14:38:29.029Z,61.13
2023-03-21T14:40:55.207Z,61.06
2023-03-21T14:43:21.305Z,61.09
2023-03-21T14:45:47.480Z,60.96
2023-03-21T14:48:13.675Z,60.93
2023-03-21T14:50:40.462Z,61.02
2023-03-21T14:53:06.562Z,61.10
2023-03-21T14:55:32.705Z,61.08
2023-03-21T14:57:58.837Z,60.97
2023-03-21T15:00:24.939Z,61.20
2023-03-21T15:02:51.074Z,61.03
2023-03-21T15:05:17.425Z,60.87
2023-03-21T15:07:43.564Z,61.13
2023-03-21T15:10:09.685Z,61.06
2023-03-21T15:12:35.919Z,60.95
2023-03-21T15:15:02.014Z,61.06
2023-03-21T15:17:28.133Z,61.13
2023-03-21T15:19:54.259Z,60.99
2023-03-21T15:22:20.673Z,61.06
2023-03-21T15:24:46.824Z,61.03
2023-03-21T15:27:15.315Z,60.99
2023-03-21T15:29:41.546Z,61.00
2023-03-21T15:32:07.725Z,61.06
2023-03-21T15:34:33.897Z,61.03
2023-03-21T15:37:00.024Z,60.90
2023-03-21T15:39:26.165Z,61.06
2023-03-21T15:41:52.286Z,61.06
2023-03-21T15:44:18.410Z,60.97
2023-03-21T15:46:44.562Z,61.14
2023-03-21T15:49:10.774Z,61.23
2023-03-21T15:51:36.895Z,61.13
2023-03-21T15:54:02.984Z,61.23
2023-03-21T15:56:29.148Z,61.06
2023-03-21T15:58:55.270Z,61.08
2023-03-21T16:01:21.457Z,61.22
2023-03-21T16:03:47.620Z,61.10
2023-03-21T16:06:13.725Z,61.42
2023-03-21T16:08:39.814Z,61.23
2023-03-21T16:11:05.932Z,61.18
2023-03-21T16:13:32.021Z,60.90
2023-03-21T16:15:58.198Z,61.02
2023-03-21T16:18:24.348Z,61.34
2023-03-21T16:20:50.442Z,61.04
2023-03-21T16:23:16.545Z,61.08
2023-03-21T16:25:42.654Z,61.18
2023-03-21T16:28:08.760Z,61.12
2023-03-21T16:30:34.892Z,61.05
2023-03-21T16:33:00.997Z,61.23
2023-03-21T16:35:27.112Z,61.07
2023-03-21T16:37:53.216Z,61.03
2023-03-21T16:40:19.349Z,61.11
2023-03-21T16:42:45.470Z,61.02
2023-03-21T16:45:11.572Z,61.04
2023-03-21T16:47:37.742Z,61.10
2023-03-21T16:50:03.852Z,61.21
2023-03-21T16:52:30.127Z,61.02
2023-03-21T16:54:56.386Z,60.96
2023-03-21T16:57:22.559Z,61.13
2023-03-21T16:59:48.729Z,60.82
2023-03-21T17:02:14.881Z,60.90
2023-03-21T17:04:40.971Z,61.04
2023-03-21T17:07:07.119Z,60.98
2023-03-21T17:09:33.320Z,60.99
2023-03-21T17:11:59.523Z,60.96
2023-03-21T17:14:25.649Z,60.93
2023-03-21T17:16:51.842Z,61.15
2023-03-21T17:19:18.046Z,60.93
2023-03-21T17:21:44.160Z,60.92
2023-03-21T17:24:10.305Z,60.96
2023-03-21T17:26:36.474Z,61.12
2023-03-21T17:29:02.619Z,60.93
2023-03-21T17:31:28.848Z,61.01
2023-03-21T17:33:55.011Z,60.92
2023-03-21T17:36:21.169Z,60.94
2023-03-21T17:38:47.354Z,60.94
2023-03-21T17:41:13.532Z,60.98
2023-03-21T17:43:39.777Z,61.00
2023-03-21T17:46:06.010Z,60.91
2023-03-21T17:48:32.160Z,60.86
2023-03-21T17:50:58.249Z,61.09
2023-03-21T17:53:24.388Z,61.08
2023-03-21T17:55:50.498Z,60.98
2023-03-21T17:58:16.602Z,60.99
2023-03-21T18:00:42.961Z,60.92
2023-03-21T18:03:09.088Z,61.02
2023-03-21T18:05:35.230Z,61.04
2023-03-21T18:08:10.185Z,60.98
2023-03-21T18:10:36.948Z,60.91
2023-03-21T18:13:03.327Z,61.06
2023-03-21T18:15:30.444Z,60.86
2023-03-21T18:17:56.806Z,61.06
2023-03-21T18:20:23.724Z,61.05
2023-03-21T18:22:50.405Z,60.83
2023-03-21T18:25:16.562Z,60.90
2023-03-21T18:28:10.033Z,61.00
2023-03-21T18:30:56.435Z,60.94
2023-03-21T18:33:19.535Z,61.08
2023-03-21T18:35:46.797Z,60.92
2023-03-21T18:38:12.992Z,60.96
2023-03-21T18:40:39.750Z,60.75
2023-03-21T18:43:49.980Z,60.92
2023-03-21T18:45:52.200Z,60.83
2023-03-21T18:48:18.422Z,60.99
2023-03-21T18:50:44.601Z,60.93
2023-03-21T18:53:10.753Z,60.81
2023-03-21T18:55:46.105Z,60.87
2023-03-21T18:58:13.771Z,60.81
2023-03-21T19:00:40.129Z,60.81
2023-03-21T19:03:19.297Z,60.73
2023-03-21T19:05:50.830Z,61.01
2023-03-21T19:08:16.955Z,60.95
2023-03-21T19:10:43.260Z,60.70
2023-03-21T19:13:09.436Z,60.85
2023-03-21T19:15:35.558Z,60.82
2023-03-21T19:20:47.761Z,60.84
2023-03-21T19:23:13.943Z,60.74
2023-03-21T19:25:40.101Z,60.87
2023-03-21T19:28:06.235Z,60.86
2023-03-21T19:30:32.344Z,60.80
2023-03-21T19:32:58.467Z,60.95
2023-03-21T19:35:25.214Z,60.99
2023-03-21T19:37:51.364Z,60.75
2023-03-21T19:40:17.472Z,60.82
2023-03-21T19:42:44.092Z,61.05
2023-03-21T19:45:10.215Z,60.85
2023-03-21T19:47:36.448Z,60.88
2023-03-21T19:52:48.626Z,60.91
2023-03-21T19:55:14.762Z,60.86
2023-03-21T19:57:40.883Z,61.01
2023-03-21T20:00:07.002Z,60.87
2023-03-21T20:02:36.380Z,60.96
2023-03-21T20:05:02.961Z,60.83
2023-03-21T20:07:29.067Z,60.81
2023-03-21T20:09:57.295Z,60.90
2023-03-21T20:12:23.617Z,60.87
2023-03-21T20:14:53.779Z,60.79
2023-03-21T20:17:24.307Z,61.02
2023-03-21T20:19:50.456Z,60.83
2023-03-21T20:22:24.605Z,60.93
2023-03-21T20:24:54.143Z,61.05
2023-03-21T20:27:20.231Z,60.83
2023-03-21T20:30:08.585Z,60.84
2023-03-21T20:32:32.414Z,60.92
2023-03-21T20:35:10.236Z,60.96
2023-03-21T20:37:42.910Z,60.93
2023-03-21T20:40:09.009Z,61.01
2023-03-21T20:42:35.099Z,61.04
2023-03-21T20:45:01.511Z,60.93
2023-03-21T20:47:27.735Z,60.91
2023-03-21T20:49:53.837Z,60.98
2023-03-21T20:55:06.096Z,61.22
2023-03-21T20:57:34.083Z,61.11
2023-03-21T21:00:00.293Z,61.22
2023-03-21T21:02:26.395Z,61.07
2023-03-21T21:05:21.516Z,60.98
2023-03-21T21:07:38.626Z,60.88
2023-03-21T21:10:04.834Z,60.93
2023-03-21T21:12:30.936Z,60.90
2023-03-21T21:14:57.093Z,60.91
2023-03-21T21:17:42.856Z,60.86
2023-03-21T21:20:12.460Z,60.94
2023-03-21T21:22:39.160Z,60.93
2023-03-21T21:25:05.964Z,61.02
2023-03-21T21:27:32.130Z,60.92
2023-03-21T21:29:58.310Z,61.08
2023-03-21T21:32:25.682Z,60.92
2023-03-21T21:34:51.837Z,60.92
2023-03-21T21:37:17.957Z,61.06
2023-03-21T21:39:44.169Z,60.96
2023-03-21T21:42:10.320Z,60.91
2023-03-21T21:44:36.464Z,60.86
2023-03-21T21:47:02.575Z,60.98
2023-03-21T21:49:28.662Z,60.91
2023-03-21T21:51:54.807Z,60.98
2023-03-21T21:54:20.926Z,60.95
2023-03-21T21:56:47.025Z,61.02
2023-03-21T21:59:13.614Z,60.92
2023-03-21T22:01:39.734Z,60.91
2023-03-21T22:04:05.843Z,60.93
2023-03-21T22:06:31.965Z,60.84
2023-03-21T22:08:58.082Z,60.93
2023-03-21T22:11:24.266Z,61.14
2023-03-21T22:13:50.376Z,60.84
2023-03-21T22:16:16.485Z,60.88
2023-03-21T22:18:42.594Z,60.96
2023-03-21T22:21:08.735Z,61.01
2023-03-21T22:23:34.862Z,61.00
2023-03-21T22:26:01.067Z,60.95
2023-03-21T22:28:27.243Z,60.89
2023-03-21T22:30:53.443Z,60.87
2023-03-21T22:33:19.555Z,60.80
2023-03-21T22:35:45.731Z,60.94
2023-03-21T22:38:11.880Z,61.10
2023-03-21T22:40:38.530Z,60.95
2023-03-21T22:43:04.839Z,61.11
2023-03-21T22:45:31.006Z,60.96
2023-03-21T22:47:57.154Z,60.96
2023-03-21T22:50:23.347Z,61.02
2023-03-21T22:52:49.542Z,60.83
2023-03-21T22:55:15.765Z,61.00
2023-03-21T22:57:41.905Z,60.78
2023-03-21T23:00:08.056Z,60.92
2023-03-21T23:02:34.168Z,60.88
2023-03-21T23:05:00.782Z,60.97
2023-03-21T23:07:26.926Z,60.94
2023-03-21T23:09:53.121Z,61.07
2023-03-21T23:12:19.331Z,60.93
2023-03-21T23:14:45.429Z,60.92
2023-03-21T23:17:11.528Z,61.03
2023-03-21T23:19:40.491Z,60.94
2023-03-21T23:22:07.099Z,60.95
2023-03-21T23:24:33.235Z,60.89
2023-03-21T23:26:59.395Z,60.97
2023-03-21T23:29:25.520Z,60.89
2023-03-21T23:31:51.644Z,60.94
2023-03-21T23:34:17.753Z,60.96
2023-03-21T23:36:43.857Z,60.98
2023-03-21T23:39:09.976Z,60.94
2023-03-21T23:41:36.144Z,60.93
2023-03-21T23:44:02.258Z,61.05
2023-03-21T23:46:28.481Z,61.11
2023-03-21T23:48:54.643Z,61.02
2023-03-21T23:51:20.789Z,61.20
2023-03-21T23:53:46.914Z,61.09
2023-03-21T23:56:13.116Z,61.04
2023-03-21T23:58:39.302Z,60.80
